sensor_id;sensor_type;location;lat;lon;timestamp;P1;durP1;ratioP1;P2;durP2;ratioP2
40058;SDS011;25763;49.972;8.568;2022-07-01T00:01:35;10.02;;;9.43;;
40058;SDS011;25763;49.972;8.568;2022-07-01T00:04:00;9.57;;;8.98;;
40058;SDS011;25763;49.972;8.568;2022-07-01T00:06:26;13.25;;;12.45;;
40058;SDS011;25763;49.972;8.568;2022-07-01T00:08:51;12.25;;;11.55;;
40058;SDS011;25763;49.972;8.568;2022-07-01T00:11:17;11.80;;;11.10;;
40058;SDS011;25763;49.972;8.568;2022-07-01T00:13:42;12.27;;;11.57;;
40058;SDS011;25763;49.972;8.568;2022-07-01T00:16:07;10.68;;;10.05;;
40058;SDS011;25763;49.972;8.568;2022-07-01T00:18:33;13.55;;;12.55;;
40058;SDS011;25763;49.972;8.568;2022-07-01T00:20:58;14.40;;;13.57;;
40058;SDS011;25763;49.972;8.568;2022-07-01T00:23:26;12.95;;;12.20;;
40058;SDS011;25763;49.972;8.568;2022-07-01T00:25:52;12.30;;;11.60;;
40058;SDS011;25763;49.972;8.568;2022-07-01T00:28:17;12.55;;;11.82;;
40058;SDS011;25763;49.972;8.568;2022-07-01T00:30:43;12.73;;;12.02;;
40058;SDS011;25763;49.972;8.568;2022-07-01T00:33:08;10.73;;;10.10;;
40058;SDS011;25763;49.972;8.568;2022-07-01T00:35:33;10.02;;;9.43;;
40058;SDS011;25763;49.972;8.568;2022-07-01T00:37:59;11.63;;;10.93;;
40058;SDS011;25763;49.972;8.568;2022-07-01T00:40:24;12.52;;;11.73;;
40058;SDS011;25763;49.972;8.568;2022-07-01T00:42:50;14.07;;;13.27;;
40058;SDS011;25763;49.972;8.568;2022-07-01T00:45:15;16.15;;;15.27;;
40058;SDS011;25763;49.972;8.568;2022-07-01T00:47:42;17.50;;;16.50;;
40058;SDS011;25763;49.972;8.568;2022-07-01T00:50:09;19.73;;;18.67;;
40058;SDS011;25763;49.972;8.568;2022-07-01T00:52:36;21.60;;;20.45;;
40058;SDS011;25763;49.972;8.568;2022-07-01T00:55:07;21.08;;;19.98;;
40058;SDS011;25763;49.972;8.568;2022-07-01T00:57:35;17.45;;;16.48;;
40058;SDS011;25763;49.972;8.568;2022-07-01T01:00:05;15.63;;;14.73;;
40058;SDS011;25763;49.972;8.568;2022-07-01T01:02:39;15.70;;;14.80;;
40058;SDS011;25763;49.972;8.568;2022-07-01T01:05:05;15.70;;;14.80;;
40058;SDS011;25763;49.972;8.568;2022-07-01T01:07:32;15.23;;;14.35;;
40058;SDS011;25763;49.972;8.568;2022-07-01T01:09:58;14.95;;;14.10;;
40058;SDS011;25763;49.972;8.568;2022-07-01T01:12:27;14.88;;;14.05;;
40058;SDS011;25763;49.972;8.568;2022-07-01T01:14:53;13.75;;;12.95;;
40058;SDS011;25763;49.972;8.568;2022-07-01T01:17:19;13.65;;;12.85;;
40058;SDS011;25763;49.972;8.568;2022-07-01T01:19:47;13.68;;;12.88;;
40058;SDS011;25763;49.972;8.568;2022-07-01T01:22:14;12.98;;;12.23;;
40058;SDS011;25763;49.972;8.568;2022-07-01T01:24:41;14.52;;;13.73;;
40058;SDS011;25763;49.972;8.568;2022-07-01T01:27:06;15.90;;;15.00;;
40058;SDS011;25763;49.972;8.568;2022-07-01T01:29:34;16.75;;;15.85;;
40058;SDS011;25763;49.972;8.568;2022-07-01T01:32:00;16.35;;;15.45;;
40058;SDS011;25763;49.972;8.568;2022-07-01T01:34:26;16.67;;;15.75;;
40058;SDS011;25763;49.972;8.568;2022-07-01T01:36:52;17.70;;;16.73;;
40058;SDS011;25763;49.972;8.568;2022-07-01T01:39:18;21.00;;;19.88;;
40058;SDS011;25763;49.972;8.568;2022-07-01T01:41:44;20.00;;;18.90;;
40058;SDS011;25763;49.972;8.568;2022-07-01T01:44:10;20.92;;;19.83;;
40058;SDS011;25763;49.972;8.568;2022-07-01T01:46:35;17.85;;;16.85;;
40058;SDS011;25763;49.972;8.568;2022-07-01T01:49:01;20.13;;;19.05;;
40058;SDS011;25763;49.972;8.568;2022-07-01T01:51:28;16.65;;;15.73;;
40058;SDS011;25763;49.972;8.568;2022-07-01T01:53:53;14.85;;;14.02;;
40058;SDS011;25763;49.972;8.568;2022-07-01T01:56:19;12.13;;;11.43;;
40058;SDS011;25763;49.972;8.568;2022-07-01T01:58:44;13.75;;;12.95;;
40058;SDS011;25763;49.972;8.568;2022-07-01T02:01:10;12.45;;;11.75;;
40058;SDS011;25763;49.972;8.568;2022-07-01T02:03:36;9.93;;;9.32;;
40058;SDS011;25763;49.972;8.568;2022-07-01T02:06:03;10.55;;;9.93;;
40058;SDS011;25763;49.972;8.568;2022-07-01T02:08:29;10.95;;;10.27;;
40058;SDS011;25763;49.972;8.568;2022-07-01T02:10:55;9.40;;;8.80;;
40058;SDS011;25763;49.972;8.568;2022-07-01T02:13:20;10.52;;;9.93;;
40058;SDS011;25763;49.972;8.568;2022-07-01T02:15:46;9.82;;;9.23;;
40058;SDS011;25763;49.972;8.568;2022-07-01T02:18:12;11.35;;;10.65;;
40058;SDS011;25763;49.972;8.568;2022-07-01T02:20:37;10.60;;;9.98;;
40058;SDS011;25763;49.972;8.568;2022-07-01T02:23:02;9.90;;;9.30;;
40058;SDS011;25763;49.972;8.568;2022-07-01T02:25:28;10.90;;;10.25;;
40058;SDS011;25763;49.972;8.568;2022-07-01T02:27:53;10.38;;;8.35;;
40058;SDS011;25763;49.972;8.568;2022-07-01T02:30:18;8.10;;;7.60;;
40058;SDS011;25763;49.972;8.568;2022-07-01T02:32:44;8.50;;;8.00;;
40058;SDS011;25763;49.972;8.568;2022-07-01T02:35:09;8.52;;;8.02;;
40058;SDS011;25763;49.972;8.568;2022-07-01T02:37:35;7.97;;;7.47;;
40058;SDS011;25763;49.972;8.568;2022-07-01T02:40:01;8.02;;;7.53;;
40058;SDS011;25763;49.972;8.568;2022-07-01T02:42:26;7.57;;;7.07;;
40058;SDS011;25763;49.972;8.568;2022-07-01T02:44:55;7.90;;;7.40;;
40058;SDS011;25763;49.972;8.568;2022-07-01T02:47:20;7.55;;;7.05;;
40058;SDS011;25763;49.972;8.568;2022-07-01T02:49:46;7.60;;;7.10;;
40058;SDS011;25763;49.972;8.568;2022-07-01T02:52:13;7.88;;;7.38;;
40058;SDS011;25763;49.972;8.568;2022-07-01T02:54:40;8.27;;;7.78;;
40058;SDS011;25763;49.972;8.568;2022-07-01T02:57:06;7.22;;;6.72;;
40058;SDS011;25763;49.972;8.568;2022-07-01T02:59:31;7.40;;;6.90;;
40058;SDS011;25763;49.972;8.568;2022-07-01T03:01:56;8.20;;;7.70;;
40058;SDS011;25763;49.972;8.568;2022-07-01T03:04:22;7.25;;;6.75;;
40058;SDS011;25763;49.972;8.568;2022-07-01T03:06:47;7.50;;;7.00;;
40058;SDS011;25763;49.972;8.568;2022-07-01T03:09:12;7.82;;;7.18;;
40058;SDS011;25763;49.972;8.568;2022-07-01T03:11:38;7.60;;;7.10;;
40058;SDS011;25763;49.972;8.568;2022-07-01T03:14:03;7.90;;;7.40;;
40058;SDS011;25763;49.972;8.568;2022-07-01T03:16:28;7.28;;;6.78;;
40058;SDS011;25763;49.972;8.568;2022-07-01T03:18:54;8.55;;;7.95;;
40058;SDS011;25763;49.972;8.568;2022-07-01T03:21:19;8.13;;;7.63;;
40058;SDS011;25763;49.972;8.568;2022-07-01T03:23:44;7.00;;;6.50;;
40058;SDS011;25763;49.972;8.568;2022-07-01T03:26:10;8.07;;;7.57;;
40058;SDS011;25763;49.972;8.568;2022-07-01T03:28:35;8.07;;;7.57;;
40058;SDS011;25763;49.972;8.568;2022-07-01T03:31:00;7.43;;;6.93;;
40058;SDS011;25763;49.972;8.568;2022-07-01T03:33:26;7.93;;;7.43;;
40058;SDS011;25763;49.972;8.568;2022-07-01T03:35:52;8.25;;;7.75;;
40058;SDS011;25763;49.972;8.568;2022-07-01T03:38:17;8.90;;;8.30;;
40058;SDS011;25763;49.972;8.568;2022-07-01T03:40:43;7.93;;;7.43;;
40058;SDS011;25763;49.972;8.568;2022-07-01T03:43:08;8.20;;;7.70;;
40058;SDS011;25763;49.972;8.568;2022-07-01T03:45:34;8.75;;;8.20;;
40058;SDS011;25763;49.972;8.568;2022-07-01T03:48:00;10.20;;;9.50;;
40058;SDS011;25763;49.972;8.568;2022-07-01T03:50:25;9.57;;;8.98;;
40058;SDS011;25763;49.972;8.568;2022-07-01T03:52:51;8.77;;;8.20;;
40058;SDS011;25763;49.972;8.568;2022-07-01T03:55:35;8.95;;;8.35;;
40058;SDS011;25763;49.972;8.568;2022-07-01T03:58:01;9.55;;;8.95;;
40058;SDS011;25763;49.972;8.568;2022-07-01T04:00:26;9.75;;;9.15;;
40058;SDS011;25763;49.972;8.568;2022-07-01T04:02:52;10.20;;;9.60;;
40058;SDS011;25763;49.972;8.568;2022-07-01T04:05:18;9.63;;;9.02;;
40058;SDS011;25763;49.972;8.568;2022-07-01T04:07:43;9.60;;;9.00;;
40058;SDS011;25763;49.972;8.568;2022-07-01T04:10:08;9.10;;;8.50;;
40058;SDS011;25763;49.972;8.568;2022-07-01T04:12:34;8.45;;;7.93;;
40058;SDS011;25763;49.972;8.568;2022-07-01T04:14:59;10.05;;;9.45;;
40058;SDS011;25763;49.972;8.568;2022-07-01T04:17:25;9.98;;;9.38;;
40058;SDS011;25763;49.972;8.568;2022-07-01T04:19:50;9.55;;;8.95;;
40058;SDS011;25763;49.972;8.568;2022-07-01T04:22:15;8.85;;;8.25;;
40058;SDS011;25763;49.972;8.568;2022-07-01T04:25:01;8.30;;;7.80;;
40058;SDS011;25763;49.972;8.568;2022-07-01T04:27:28;7.80;;;7.30;;
40058;SDS011;25763;49.972;8.568;2022-07-01T04:29:54;8.20;;;7.70;;
40058;SDS011;25763;49.972;8.568;2022-07-01T04:32:20;8.05;;;7.55;;
40058;SDS011;25763;49.972;8.568;2022-07-01T04:34:46;7.22;;;6.72;;
40058;SDS011;25763;49.972;8.568;2022-07-01T04:37:11;7.30;;;6.80;;
40058;SDS011;25763;49.972;8.568;2022-07-01T04:39:37;7.95;;;7.45;;
40058;SDS011;25763;49.972;8.568;2022-07-01T04:42:03;7.20;;;6.70;;
40058;SDS011;25763;49.972;8.568;2022-07-01T04:44:29;7.60;;;7.10;;
40058;SDS011;25763;49.972;8.568;2022-07-01T04:46:56;7.63;;;7.13;;
40058;SDS011;25763;49.972;8.568;2022-07-01T04:49:22;7.55;;;7.05;;
40058;SDS011;25763;49.972;8.568;2022-07-01T04:51:48;8.15;;;7.65;;
40058;SDS011;25763;49.972;8.568;2022-07-01T04:54:13;8.48;;;7.97;;
40058;SDS011;25763;49.972;8.568;2022-07-01T04:56:39;8.02;;;7.50;;
40058;SDS011;25763;49.972;8.568;2022-07-01T04:59:04;8.57;;;8.02;;
40058;SDS011;25763;49.972;8.568;2022-07-01T05:01:30;7.68;;;7.18;;
40058;SDS011;25763;49.972;8.568;2022-07-01T05:03:56;9.32;;;8.73;;
40058;SDS011;25763;49.972;8.568;2022-07-01T05:06:22;9.48;;;8.88;;
40058;SDS011;25763;49.972;8.568;2022-07-01T05:08:47;8.23;;;7.72;;
40058;SDS011;25763;49.972;8.568;2022-07-01T05:11:12;8.95;;;8.15;;
40058;SDS011;25763;49.972;8.568;2022-07-01T05:13:38;9.00;;;8.40;;
40058;SDS011;25763;49.972;8.568;2022-07-01T05:16:03;9.40;;;8.80;;
40058;SDS011;25763;49.972;8.568;2022-07-01T05:18:29;8.73;;;8.20;;
40058;SDS011;25763;49.972;8.568;2022-07-01T05:21:14;8.88;;;8.27;;
40058;SDS011;25763;49.972;8.568;2022-07-01T05:23:58;9.50;;;8.90;;
40058;SDS011;25763;49.972;8.568;2022-07-01T05:26:24;7.70;;;7.20;;
40058;SDS011;25763;49.972;8.568;2022-07-01T05:28:51;7.97;;;7.47;;
40058;SDS011;25763;49.972;8.568;2022-07-01T05:31:16;7.18;;;6.68;;
40058;SDS011;25763;49.972;8.568;2022-07-01T05:33:42;7.22;;;6.72;;
40058;SDS011;25763;49.972;8.568;2022-07-01T05:36:07;7.38;;;6.88;;
40058;SDS011;25763;49.972;8.568;2022-07-01T05:38:33;7.28;;;6.78;;
40058;SDS011;25763;49.972;8.568;2022-07-01T05:40:58;6.32;;;5.93;;
40058;SDS011;25763;49.972;8.568;2022-07-01T05:43:23;6.50;;;6.10;;
40058;SDS011;25763;49.972;8.568;2022-07-01T05:45:49;6.85;;;6.35;;
40058;SDS011;25763;49.972;8.568;2022-07-01T05:48:14;7.13;;;6.63;;
40058;SDS011;25763;49.972;8.568;2022-07-01T05:50:40;7.13;;;6.63;;
40058;SDS011;25763;49.972;8.568;2022-07-01T05:53:05;7.38;;;6.88;;
40058;SDS011;25763;49.972;8.568;2022-07-01T05:55:30;7.70;;;7.20;;
40058;SDS011;25763;49.972;8.568;2022-07-01T05:57:56;20.45;;;8.27;;
40058;SDS011;25763;49.972;8.568;2022-07-01T06:00:21;8.50;;;8.00;;
40058;SDS011;25763;49.972;8.568;2022-07-01T06:02:46;9.25;;;8.65;;
40058;SDS011;25763;49.972;8.568;2022-07-01T06:05:12;9.07;;;8.48;;
40058;SDS011;25763;49.972;8.568;2022-07-01T06:07:40;11.27;;;10.57;;
40058;SDS011;25763;49.972;8.568;2022-07-01T06:10:07;10.57;;;9.98;;
40058;SDS011;25763;49.972;8.568;2022-07-01T06:12:35;11.38;;;10.68;;
40058;SDS011;25763;49.972;8.568;2022-07-01T06:15:00;11.45;;;10.75;;
40058;SDS011;25763;49.972;8.568;2022-07-01T06:17:25;11.65;;;10.95;;
40058;SDS011;25763;49.972;8.568;2022-07-01T06:19:51;12.27;;;11.32;;
40058;SDS011;25763;49.972;8.568;2022-07-01T06:22:18;10.95;;;10.25;;
40058;SDS011;25763;49.972;8.568;2022-07-01T06:24:45;11.98;;;11.27;;
40058;SDS011;25763;49.972;8.568;2022-07-01T06:27:11;10.63;;;10.00;;
40058;SDS011;25763;49.972;8.568;2022-07-01T06:29:36;10.68;;;10.07;;
40058;SDS011;25763;49.972;8.568;2022-07-01T06:32:03;11.48;;;10.77;;
40058;SDS011;25763;49.972;8.568;2022-07-01T06:34:32;10.65;;;10.05;;
40058;SDS011;25763;49.972;8.568;2022-07-01T06:36:58;10.48;;;9.88;;
40058;SDS011;25763;49.972;8.568;2022-07-01T06:39:25;10.93;;;10.23;;
40058;SDS011;25763;49.972;8.568;2022-07-01T06:41:51;10.95;;;10.25;;
40058;SDS011;25763;49.972;8.568;2022-07-01T06:44:18;11.20;;;10.50;;
40058;SDS011;25763;49.972;8.568;2022-07-01T06:46:43;9.07;;;8.48;;
40058;SDS011;25763;49.972;8.568;2022-07-01T06:49:09;10.57;;;9.98;;
40058;SDS011;25763;49.972;8.568;2022-07-01T06:51:34;9.63;;;9.02;;
40058;SDS011;25763;49.972;8.568;2022-07-01T06:53:59;9.85;;;9.25;;
40058;SDS011;25763;49.972;8.568;2022-07-01T06:56:25;11.02;;;10.32;;
40058;SDS011;25763;49.972;8.568;2022-07-01T06:58:50;9.93;;;9.30;;
40058;SDS011;25763;49.972;8.568;2022-07-01T07:01:16;10.27;;;9.48;;
40058;SDS011;25763;49.972;8.568;2022-07-01T07:03:41;9.25;;;8.65;;
40058;SDS011;25763;49.972;8.568;2022-07-01T07:06:06;9.93;;;9.32;;
40058;SDS011;25763;49.972;8.568;2022-07-01T07:08:32;10.65;;;10.00;;
40058;SDS011;25763;49.972;8.568;2022-07-01T07:10:58;11.40;;;10.70;;
40058;SDS011;25763;49.972;8.568;2022-07-01T07:13:24;12.68;;;11.98;;
40058;SDS011;25763;49.972;8.568;2022-07-01T07:15:50;12.18;;;11.48;;
40058;SDS011;25763;49.972;8.568;2022-07-01T07:18:16;12.57;;;11.85;;
40058;SDS011;25763;49.972;8.568;2022-07-01T07:20:42;12.68;;;11.98;;
40058;SDS011;25763;49.972;8.568;2022-07-01T07:23:08;10.55;;;9.95;;
40058;SDS011;25763;49.972;8.568;2022-07-01T07:25:33;12.20;;;11.50;;
40058;SDS011;25763;49.972;8.568;2022-07-01T07:27:59;12.02;;;11.32;;
40058;SDS011;25763;49.972;8.568;2022-07-01T07:30:24;12.57;;;11.77;;
40058;SDS011;25763;49.972;8.568;2022-07-01T07:32:49;12.70;;;11.90;;
40058;SDS011;25763;49.972;8.568;2022-07-01T07:35:15;11.30;;;10.60;;
40058;SDS011;25763;49.972;8.568;2022-07-01T07:37:41;11.50;;;10.80;;
40058;SDS011;25763;49.972;8.568;2022-07-01T07:40:07;10.48;;;9.77;;
40058;SDS011;25763;49.972;8.568;2022-07-01T07:42:39;10.63;;;10.00;;
40058;SDS011;25763;49.972;8.568;2022-07-01T07:45:06;10.77;;;9.73;;
40058;SDS011;25763;49.972;8.568;2022-07-01T07:47:33;10.13;;;9.52;;
40058;SDS011;25763;49.972;8.568;2022-07-01T07:49:58;10.15;;;9.55;;
40058;SDS011;25763;49.972;8.568;2022-07-01T07:52:24;10.52;;;9.85;;
40058;SDS011;25763;49.972;8.568;2022-07-01T07:54:49;10.50;;;9.90;;
40058;SDS011;25763;49.972;8.568;2022-07-01T07:57:15;9.60;;;9.00;;
40058;SDS011;25763;49.972;8.568;2022-07-01T07:59:40;10.43;;;9.82;;
40058;SDS011;25763;49.972;8.568;2022-07-01T08:02:05;10.38;;;9.77;;
40058;SDS011;25763;49.972;8.568;2022-07-01T08:04:32;10.25;;;9.65;;
40058;SDS011;25763;49.972;8.568;2022-07-01T08:06:57;10.15;;;9.55;;
40058;SDS011;25763;49.972;8.568;2022-07-01T08:09:23;8.48;;;7.97;;
40058;SDS011;25763;49.972;8.568;2022-07-01T08:11:49;9.32;;;8.73;;
40058;SDS011;25763;49.972;8.568;2022-07-01T08:14:15;8.50;;;7.97;;
40058;SDS011;25763;49.972;8.568;2022-07-01T08:16:40;9.60;;;9.00;;
40058;SDS011;25763;49.972;8.568;2022-07-01T08:19:05;9.07;;;8.48;;
40058;SDS011;25763;49.972;8.568;2022-07-01T08:21:31;9.40;;;8.80;;
40058;SDS011;25763;49.972;8.568;2022-07-01T08:23:56;10.15;;;9.55;;
40058;SDS011;25763;49.972;8.568;2022-07-01T08:26:21;9.35;;;8.75;;
40058;SDS011;25763;49.972;8.568;2022-07-01T08:28:47;10.27;;;9.68;;
40058;SDS011;25763;49.972;8.568;2022-07-01T08:31:12;9.60;;;9.00;;
40058;SDS011;25763;49.972;8.568;2022-07-01T08:33:38;9.80;;;9.15;;
40058;SDS011;25763;49.972;8.568;2022-07-01T08:36:05;10.15;;;9.52;;
40058;SDS011;25763;49.972;8.568;2022-07-01T08:38:32;10.05;;;9.45;;
40058;SDS011;25763;49.972;8.568;2022-07-01T08:40:57;10.10;;;9.50;;
40058;SDS011;25763;49.972;8.568;2022-07-01T08:43:23;9.45;;;8.85;;
40058;SDS011;25763;49.972;8.568;2022-07-01T08:45:50;10.45;;;9.77;;
40058;SDS011;25763;49.972;8.568;2022-07-01T08:48:16;9.80;;;9.20;;
40058;SDS011;25763;49.972;8.568;2022-07-01T08:50:42;10.23;;;9.63;;
40058;SDS011;25763;49.972;8.568;2022-07-01T08:53:09;10.63;;;10.02;;
40058;SDS011;25763;49.972;8.568;2022-07-01T08:55:35;11.50;;;10.80;;
40058;SDS011;25763;49.972;8.568;2022-07-01T08:58:20;9.32;;;8.73;;
40058;SDS011;25763;49.972;8.568;2022-07-01T09:00:46;10.20;;;9.60;;
40058;SDS011;25763;49.972;8.568;2022-07-01T09:03:11;11.70;;;11.00;;
40058;SDS011;25763;49.972;8.568;2022-07-01T09:05:37;11.60;;;10.90;;
40058;SDS011;25763;49.972;8.568;2022-07-01T09:08:03;12.65;;;11.95;;
40058;SDS011;25763;49.972;8.568;2022-07-01T09:10:30;11.50;;;10.80;;
40058;SDS011;25763;49.972;8.568;2022-07-01T09:13:05;11.70;;;10.90;;
40058;SDS011;25763;49.972;8.568;2022-07-01T09:15:32;12.88;;;12.10;;
40058;SDS011;25763;49.972;8.568;2022-07-01T09:18:12;13.30;;;12.15;;
40058;SDS011;25763;49.972;8.568;2022-07-01T09:20:40;12.07;;;11.30;;
40058;SDS011;25763;49.972;8.568;2022-07-01T09:23:09;11.52;;;10.82;;
40058;SDS011;25763;49.972;8.568;2022-07-01T09:25:39;11.27;;;10.57;;
40058;SDS011;25763;49.972;8.568;2022-07-01T09:28:09;11.57;;;10.88;;
40058;SDS011;25763;49.972;8.568;2022-07-01T09:30:35;11.80;;;11.10;;
40058;SDS011;25763;49.972;8.568;2022-07-01T09:35:36;11.70;;;11.00;;
40058;SDS011;25763;49.972;8.568;2022-07-01T09:38:03;12.02;;;11.32;;
40058;SDS011;25763;49.972;8.568;2022-07-01T09:40:50;12.82;;;12.02;;
40058;SDS011;25763;49.972;8.568;2022-07-01T09:43:30;13.27;;;12.48;;
40058;SDS011;25763;49.972;8.568;2022-07-01T09:46:00;11.85;;;11.15;;
40058;SDS011;25763;49.972;8.568;2022-07-01T09:51:00;10.68;;;10.00;;
40058;SDS011;25763;49.972;8.568;2022-07-01T09:53:27;12.82;;;12.07;;
40058;SDS011;25763;49.972;8.568;2022-07-01T09:55:52;11.98;;;11.27;;
40058;SDS011;25763;49.972;8.568;2022-07-01T09:58:18;10.65;;;10.05;;
40058;SDS011;25763;49.972;8.568;2022-07-01T10:00:44;10.35;;;9.45;;
40058;SDS011;25763;49.972;8.568;2022-07-01T10:03:10;12.55;;;11.80;;
40058;SDS011;25763;49.972;8.568;2022-07-01T10:05:45;9.48;;;8.88;;
40058;SDS011;25763;49.972;8.568;2022-07-01T10:08:29;8.85;;;8.27;;
40058;SDS011;25763;49.972;8.568;2022-07-01T10:14:26;11.25;;;10.40;;
40058;SDS011;25763;49.972;8.568;2022-07-01T10:16:55;8.35;;;7.82;;
40058;SDS011;25763;49.972;8.568;2022-07-01T10:21:48;10.10;;;9.50;;
40058;SDS011;25763;49.972;8.568;2022-07-01T10:24:14;11.70;;;11.00;;
40058;SDS011;25763;49.972;8.568;2022-07-01T10:26:44;10.52;;;9.93;;
40058;SDS011;25763;49.972;8.568;2022-07-01T10:29:29;11.30;;;10.60;;
40058;SDS011;25763;49.972;8.568;2022-07-01T10:35:05;12.52;;;11.77;;
40058;SDS011;25763;49.972;8.568;2022-07-01T10:37:32;9.73;;;9.13;;
40058;SDS011;25763;49.972;8.568;2022-07-01T10:40:00;10.73;;;10.05;;
40058;SDS011;25763;49.972;8.568;2022-07-01T10:42:31;10.95;;;9.55;;
40058;SDS011;25763;49.972;8.568;2022-07-01T10:45:05;12.13;;;11.43;;
40058;SDS011;25763;49.972;8.568;2022-07-01T10:47:33;20.88;;;19.75;;
40058;SDS011;25763;49.972;8.568;2022-07-01T10:50:00;30.83;;;29.23;;
40058;SDS011;25763;49.972;8.568;2022-07-01T10:52:33;27.13;;;25.67;;
40058;SDS011;25763;49.972;8.568;2022-07-01T10:54:59;30.17;;;28.58;;
40058;SDS011;25763;49.972;8.568;2022-07-01T11:02:25;21.30;;;20.15;;
40058;SDS011;25763;49.972;8.568;2022-07-01T11:05:10;39.28;;;37.28;;
40058;SDS011;25763;49.972;8.568;2022-07-01T11:07:38;40.50;;;38.45;;
40058;SDS011;25763;49.972;8.568;2022-07-01T11:10:10;34.35;;;32.55;;
40058;SDS011;25763;49.972;8.568;2022-07-01T11:12:38;43.63;;;41.42;;
40058;SDS011;25763;49.972;8.568;2022-07-01T11:15:05;43.70;;;41.47;;
40058;SDS011;25763;49.972;8.568;2022-07-01T11:17:31;32.95;;;31.25;;
40058;SDS011;25763;49.972;8.568;2022-07-01T11:19:58;46.78;;;44.42;;
40058;SDS011;25763;49.972;8.568;2022-07-01T11:22:24;66.60;;;63.30;;
40058;SDS011;25763;49.972;8.568;2022-07-01T11:24:52;97.22;;;92.45;;
40058;SDS011;25763;49.972;8.568;2022-07-01T11:27:18;36.83;;;34.88;;
40058;SDS011;25763;49.972;8.568;2022-07-01T11:29:43;78.22;;;74.28;;
40058;SDS011;25763;49.972;8.568;2022-07-01T11:32:09;108.38;;;103.07;;
40058;SDS011;25763;49.972;8.568;2022-07-01T11:34:35;72.40;;;68.72;;
40058;SDS011;25763;49.972;8.568;2022-07-01T11:37:08;117.97;;;112.18;;
40058;SDS011;25763;49.972;8.568;2022-07-01T11:42:37;106.63;;;101.38;;
40058;SDS011;25763;49.972;8.568;2022-07-01T11:45:03;69.03;;;65.57;;
40058;SDS011;25763;49.972;8.568;2022-07-01T11:47:29;69.05;;;65.60;;
40058;SDS011;25763;49.972;8.568;2022-07-01T11:49:56;37.05;;;35.10;;
40058;SDS011;25763;49.972;8.568;2022-07-01T11:52:23;48.67;;;46.22;;
40058;SDS011;25763;49.972;8.568;2022-07-01T11:54:50;37.17;;;35.28;;
40058;SDS011;25763;49.972;8.568;2022-07-01T11:57:17;33.90;;;32.17;;
40058;SDS011;25763;49.972;8.568;2022-07-01T11:59:45;47.08;;;44.72;;
40058;SDS011;25763;49.972;8.568;2022-07-01T12:02:13;38.80;;;36.83;;
40058;SDS011;25763;49.972;8.568;2022-07-01T12:04:41;36.95;;;34.92;;
40058;SDS011;25763;49.972;8.568;2022-07-01T12:07:07;89.38;;;84.97;;
40058;SDS011;25763;49.972;8.568;2022-07-01T12:09:34;69.18;;;65.72;;
40058;SDS011;25763;49.972;8.568;2022-07-01T12:11:59;42.65;;;40.45;;
40058;SDS011;25763;49.972;8.568;2022-07-01T12:14:26;38.08;;;36.08;;
40058;SDS011;25763;49.972;8.568;2022-07-01T12:16:56;38.90;;;36.90;;
40058;SDS011;25763;49.972;8.568;2022-07-01T12:19:27;42.80;;;40.65;;
40058;SDS011;25763;49.972;8.568;2022-07-01T12:21:54;39.10;;;37.10;;
40058;SDS011;25763;49.972;8.568;2022-07-01T12:24:23;51.75;;;49.15;;
40058;SDS011;25763;49.972;8.568;2022-07-01T12:29:24;112.47;;;106.97;;
40058;SDS011;25763;49.972;8.568;2022-07-01T12:31:58;37.65;;;35.70;;
40058;SDS011;25763;49.972;8.568;2022-07-01T12:34:41;60.03;;;57.03;;
40058;SDS011;25763;49.972;8.568;2022-07-01T12:37:12;59.13;;;55.92;;
40058;SDS011;25763;49.972;8.568;2022-07-01T12:39:52;46.42;;;44.00;;
40058;SDS011;25763;49.972;8.568;2022-07-01T12:42:23;38.50;;;36.50;;
40058;SDS011;25763;49.972;8.568;2022-07-01T12:44:55;39.70;;;37.67;;
40058;SDS011;25763;49.972;8.568;2022-07-01T12:47:26;50.13;;;47.50;;
40058;SDS011;25763;49.972;8.568;2022-07-01T12:55:25;30.83;;;29.23;;
40058;SDS011;25763;49.972;8.568;2022-07-01T12:57:53;74.05;;;70.40;;
40058;SDS011;25763;49.972;8.568;2022-07-01T13:00:20;42.53;;;40.35;;
40058;SDS011;25763;49.972;8.568;2022-07-01T13:02:46;46.97;;;44.60;;
40058;SDS011;25763;49.972;8.568;2022-07-01T13:05:15;86.15;;;81.82;;
40058;SDS011;25763;49.972;8.568;2022-07-01T13:07:41;81.50;;;77.50;;
40058;SDS011;25763;49.972;8.568;2022-07-01T13:10:06;100.38;;;95.40;;
40058;SDS011;25763;49.972;8.568;2022-07-01T13:12:32;118.65;;;112.82;;
40058;SDS011;25763;49.972;8.568;2022-07-01T13:14:57;117.22;;;111.50;;
40058;SDS011;25763;49.972;8.568;2022-07-01T13:17:23;118.63;;;112.80;;
40058;SDS011;25763;49.972;8.568;2022-07-01T13:19:49;127.55;;;121.30;;
40058;SDS011;25763;49.972;8.568;2022-07-01T13:22:14;95.65;;;90.93;;
40058;SDS011;25763;49.972;8.568;2022-07-01T13:24:40;121.45;;;115.47;;
40058;SDS011;25763;49.972;8.568;2022-07-01T13:27:06;121.47;;;115.45;;
40058;SDS011;25763;49.972;8.568;2022-07-01T13:29:31;111.53;;;105.75;;
40058;SDS011;25763;49.972;8.568;2022-07-01T13:31:56;113.78;;;108.18;;
40058;SDS011;25763;49.972;8.568;2022-07-01T13:34:22;113.50;;;107.90;;
40058;SDS011;25763;49.972;8.568;2022-07-01T13:36:47;98.82;;;93.97;;
40058;SDS011;25763;49.972;8.568;2022-07-01T13:39:13;103.57;;;98.47;;
40058;SDS011;25763;49.972;8.568;2022-07-01T13:41:38;78.53;;;74.65;;
40058;SDS011;25763;49.972;8.568;2022-07-01T13:44:03;90.47;;;85.97;;
40058;SDS011;25763;49.972;8.568;2022-07-01T13:46:29;97.78;;;92.97;;
40058;SDS011;25763;49.972;8.568;2022-07-01T13:48:55;55.03;;;52.22;;
40058;SDS011;25763;49.972;8.568;2022-07-01T13:51:20;79.35;;;75.45;;
40058;SDS011;25763;49.972;8.568;2022-07-01T13:53:45;72.95;;;69.35;;
40058;SDS011;25763;49.972;8.568;2022-07-01T13:56:11;75.38;;;71.65;;
40058;SDS011;25763;49.972;8.568;2022-07-01T13:58:36;54.80;;;52.05;;
40058;SDS011;25763;49.972;8.568;2022-07-01T14:01:01;50.17;;;47.63;;
40058;SDS011;25763;49.972;8.568;2022-07-01T14:03:28;93.15;;;88.60;;
40058;SDS011;25763;49.972;8.568;2022-07-01T14:05:53;119.22;;;113.38;;
40058;SDS011;25763;49.972;8.568;2022-07-01T14:08:18;105.88;;;100.70;;
40058;SDS011;25763;49.972;8.568;2022-07-01T14:10:44;107.35;;;102.07;;
40058;SDS011;25763;49.972;8.568;2022-07-01T14:13:10;100.45;;;95.53;;
40058;SDS011;25763;49.972;8.568;2022-07-01T14:15:36;92.25;;;87.75;;
40058;SDS011;25763;49.972;8.568;2022-07-01T14:18:02;93.13;;;88.57;;
40058;SDS011;25763;49.972;8.568;2022-07-01T14:20:27;93.63;;;89.03;;
40058;SDS011;25763;49.972;8.568;2022-07-01T14:22:53;104.50;;;99.38;;
40058;SDS011;25763;49.972;8.568;2022-07-01T14:25:19;102.72;;;97.68;;
40058;SDS011;25763;49.972;8.568;2022-07-01T14:27:46;102.35;;;97.32;;
40058;SDS011;25763;49.972;8.568;2022-07-01T14:30:11;100.97;;;96.00;;
40058;SDS011;25763;49.972;8.568;2022-07-01T14:32:37;87.32;;;83.03;;
40058;SDS011;25763;49.972;8.568;2022-07-01T14:35:03;93.63;;;89.07;;
40058;SDS011;25763;49.972;8.568;2022-07-01T14:37:30;84.70;;;80.53;;
40058;SDS011;25763;49.972;8.568;2022-07-01T14:39:55;88.00;;;83.70;;
40058;SDS011;25763;49.972;8.568;2022-07-01T14:42:22;34.78;;;32.97;;
40058;SDS011;25763;49.972;8.568;2022-07-01T14:44:52;59.45;;;56.42;;
40058;SDS011;25763;49.972;8.568;2022-07-01T14:47:18;112.75;;;107.22;;
40058;SDS011;25763;49.972;8.568;2022-07-01T14:49:43;117.65;;;111.88;;
40058;SDS011;25763;49.972;8.568;2022-07-01T14:52:10;92.10;;;87.55;;
40058;SDS011;25763;49.972;8.568;2022-07-01T14:54:36;106.97;;;101.70;;
40058;SDS011;25763;49.972;8.568;2022-07-01T14:57:03;74.32;;;70.63;;